createdAt,value
2018-07-12T00:01:50.157Z,8.07
2018-07-12T00:10:18.943Z,9.03
2018-07-12T00:12:52.156Z,8.00
2018-07-12T00:15:28.266Z,8.47
2018-07-12T00:53:20.366Z,8.43
2018-07-12T01:01:08.667Z,7.87
2018-07-12T01:03:42.535Z,8.07
2018-07-12T01:06:14.847Z,8.80
2018-07-12T01:08:45.015Z,7.07
2018-07-12T01:11:31.664Z,6.33
2018-07-12T01:16:41.909Z,7.77
2018-07-12T01:19:18.058Z,7.73
2018-07-12T01:24:32.821Z,9.50
2018-07-12T01:27:57.952Z,7.53
2018-07-12T01:43:24.773Z,11.00
2018-07-12T01:45:59.391Z,8.93
2018-07-12T01:48:41.133Z,10.37
2018-07-12T01:53:53.247Z,9.17
2018-07-12T01:56:24.307Z,9.10
2018-07-12T01:59:06.189Z,9.13
2018-07-12T02:01:38.787Z,10.63
2018-07-12T02:06:51.674Z,10.50
2018-07-12T02:09:23.213Z,9.40
2018-07-12T02:12:07.340Z,9.23
2018-07-12T02:14:40.590Z,8.77
2018-07-12T02:22:32.517Z,10.10
2018-07-12T02:25:08.144Z,11.23
2018-07-12T02:27:45.028Z,10.33
2018-07-12T02:30:17.162Z,10.03
2018-07-12T02:32:48.839Z,10.13
2018-07-12T02:35:21.951Z,9.17
2018-07-12T02:37:53.798Z,10.10
2018-07-12T02:40:28.124Z,9.73
2018-07-12T02:42:58.133Z,9.33
2018-07-12T02:45:31.763Z,9.10
2018-07-12T02:48:14.690Z,9.90
2018-07-12T02:50:49.959Z,7.60
2018-07-12T02:53:28.697Z,8.57
2018-07-12T02:55:59.273Z,9.00
2018-07-12T02:58:32.877Z,9.67
2018-07-12T03:01:02.773Z,8.47
2018-07-12T03:03:38.826Z,9.00
2018-07-12T03:06:13.953Z,10.23
2018-07-12T03:08:50.013Z,8.60
2018-07-12T03:11:21.560Z,9.17
2018-07-12T03:13:53.238Z,8.70
2018-07-12T03:16:32.115Z,9.07
2018-07-12T03:19:13.158Z,9.70
2018-07-12T03:29:44.374Z,8.57
2018-07-12T03:32:20.492Z,9.63
2018-07-12T03:34:52.660Z,8.03
2018-07-12T03:37:31.352Z,8.17
2018-07-12T03:40:03.113Z,7.67
2018-07-12T03:42:41.364Z,8.80
2018-07-12T03:45:11.869Z,7.23
2018-07-12T03:47:49.040Z,8.47
2018-07-12T03:50:26.370Z,7.53
2018-07-12T03:53:10.733Z,8.27
2018-07-12T03:55:44.124Z,10.20
2018-07-12T03:58:15.589Z,8.97
2018-07-12T04:03:45.370Z,8.03
2018-07-12T04:06:15.818Z,8.53
2018-07-12T04:08:45.626Z,9.20
2018-07-12T04:11:16.099Z,9.40
2018-07-12T04:17:12.093Z,9.37
2018-07-12T04:19:45.179Z,9.00
2018-07-12T04:22:14.946Z,10.27
2018-07-12T04:24:50.073Z,9.70
2018-07-12T04:27:24.409Z,9.30
2018-07-12T04:29:58.896Z,8.83
2018-07-12T04:32:34.622Z,9.80
2018-07-12T04:37:49.902Z,9.17
2018-07-12T04:40:33.046Z,8.03
2018-07-12T04:43:02.997Z,7.97
2018-07-12T04:45:53.140Z,9.43
2018-07-12T04:48:25.880Z,7.77
2018-07-12T04:50:56.004Z,9.60
2018-07-12T04:53:26.913Z,8.43
2018-07-12T04:55:57.056Z,8.27
2018-07-12T04:58:27.346Z,9.93
2018-07-12T05:00:57.741Z,8.83
2018-07-12T05:03:27.625Z,9.60
2018-07-12T05:05:57.267Z,16.07
2018-07-12T05:08:26.939Z,11.53
2018-07-12T05:10:56.707Z,11.53
2018-07-12T05:13:27.381Z,12.17
2018-07-12T05:15:57.173Z,12.20
2018-07-12T05:18:27.325Z,10.03
2018-07-12T05:20:59.211Z,9.47
2018-07-12T05:23:29.248Z,9.83
2018-07-12T05:25:59.034Z,8.53
2018-07-12T05:28:30.498Z,8.17
2018-07-12T05:31:07.177Z,8.87
2018-07-12T05:33:37.150Z,8.67
2018-07-12T05:36:24.624Z,8.73
2018-07-12T05:39:11.299Z,7.53
2018-07-12T05:41:49.939Z,8.83
2018-07-12T05:44:28.494Z,9.60
2018-07-12T05:47:18.206Z,8.27
2018-07-12T05:49:51.202Z,8.47
2018-07-12T05:52:23.970Z,8.13
2018-07-12T05:55:20.249Z,8.30
2018-07-12T05:58:02.271Z,8.40
2018-07-12T06:00:46.625Z,8.30
2018-07-12T06:03:32.701Z,9.63
2018-07-12T06:06:22.516Z,10.57
2018-07-12T06:08:57.075Z,9.60
2018-07-12T06:11:31.639Z,9.97
2018-07-12T06:14:09.738Z,8.93
2018-07-12T06:17:07.780Z,9.00
2018-07-12T06:19:41.320Z,9.57
2018-07-12T06:22:21.475Z,8.90
2018-07-12T06:24:54.301Z,12.90
2018-07-12T06:27:35.285Z,18.83
2018-07-12T06:30:08.365Z,17.13
2018-07-12T06:32:44.515Z,13.03
2018-07-12T06:35:31.503Z,10.43
2018-07-12T06:38:06.613Z,10.93
2018-07-12T06:40:42.304Z,10.77
2018-07-12T06:45:59.055Z,10.67
2018-07-12T06:48:34.877Z,11.20
2018-07-12T06:51:10.671Z,7.97
2018-07-12T06:53:47.636Z,8.30
2018-07-12T06:56:22.609Z,8.37
2018-07-12T06:59:04.101Z,9.93
2018-07-12T07:01:45.841Z,9.13
2018-07-12T07:04:22.320Z,10.03
2018-07-12T07:06:55.566Z,10.57
2018-07-12T07:09:33.803Z,9.43
2018-07-12T07:12:15.460Z,8.47
2018-07-12T07:14:53.176Z,9.23
2018-07-12T07:17:31.409Z,8.33
2018-07-12T07:20:08.694Z,8.63
2018-07-12T07:23:04.364Z,8.23
2018-07-12T07:25:50.876Z,9.77
2018-07-12T07:31:10.639Z,9.60
2018-07-12T07:33:51.872Z,8.63
2018-07-12T07:36:25.586Z,9.57
2018-07-12T07:39:18.868Z,9.73
2018-07-12T07:42:09.810Z,8.60
2018-07-12T07:44:43.510Z,7.97
2018-07-12T07:47:20.018Z,9.40
2018-07-12T07:49:56.654Z,9.23
2018-07-12T07:52:38.440Z,9.53
2018-07-12T07:55:10.962Z,10.10
2018-07-12T07:57:43.731Z,9.40
2018-07-12T08:00:22.563Z,10.23
2018-07-12T08:02:58.035Z,9.33
2018-07-12T08:05:44.570Z,10.40
2018-07-12T08:08:21.786Z,11.13
2018-07-12T08:11:00.641Z,11.13
2018-07-12T08:13:37.692Z,11.40
2018-07-12T08:16:12.409Z,11.33
2018-07-12T08:18:53.979Z,12.67
2018-07-12T08:21:40.756Z,11.27
2018-07-12T08:24:14.478Z,12.27
2018-07-12T08:26:54.085Z,10.43
2018-07-12T08:29:39.080Z,10.60
2018-07-12T08:32:17.298Z,13.93
2018-07-12T08:35:06.235Z,17.23
2018-07-12T08:37:59.330Z,22.57
2018-07-12T08:40:43.997Z,18.37
2018-07-12T08:43:27.754Z,11.10
2018-07-12T08:46:25.387Z,12.90
2018-07-12T08:49:00.660Z,12.17
2018-07-12T08:52:01.256Z,12.27
2018-07-12T08:54:34.214Z,11.83
2018-07-12T09:00:14.172Z,12.57
2018-07-12T09:03:04.128Z,12.13
2018-07-12T09:05:42.971Z,12.50
2018-07-12T09:08:19.023Z,13.10
2018-07-12T09:10:57.141Z,12.90
2018-07-12T09:13:34.592Z,13.63
2018-07-12T09:16:10.232Z,14.43
2018-07-12T09:18:46.163Z,13.07
2018-07-12T09:27:51.148Z,16.30
2018-07-12T09:30:37.074Z,14.63
2018-07-12T09:40:39.724Z,15.27
2018-07-12T09:43:38.339Z,16.43
2018-07-12T09:49:05.608Z,15.80
2018-07-12T09:51:42.691Z,15.83
2018-07-12T09:54:59.176Z,13.27
2018-07-12T11:33:58.489Z,11.73
2018-07-12T11:50:34.020Z,12.47
2018-07-12T11:53:06.464Z,12.90
2018-07-12T11:55:39.715Z,12.93
2018-07-12T13:21:18.710Z,10.93
2018-07-12T13:36:06.535Z,12.63
2018-07-12T14:33:45.407Z,9.33
2018-07-12T14:36:26.180Z,7.67
2018-07-12T14:39:15.860Z,9.07
2018-07-12T15:01:33.776Z,6.97
2018-07-12T15:04:11.883Z,8.13
2018-07-12T15:06:46.195Z,7.90
2018-07-12T15:09:23.677Z,9.33
2018-07-12T15:12:12.754Z,6.13
2018-07-12T15:21:11.170Z,7.47
2018-07-12T15:23:45.687Z,9.70
2018-07-12T15:26:22.026Z,7.80
2018-07-12T15:29:01.601Z,5.70
2018-07-12T15:31:34.406Z,5.73
2018-07-12T15:34:16.186Z,5.10
2018-07-12T15:36:49.626Z,7.20
2018-07-12T15:39:23.553Z,7.00
2018-07-12T15:42:00.775Z,6.43
2018-07-12T15:44:35.335Z,4.77
2018-07-12T15:47:10.084Z,8.33
2018-07-12T15:49:42.418Z,5.47
2018-07-12T15:52:15.063Z,4.80
2018-07-12T15:54:52.399Z,4.47
2018-07-12T15:57:25.466Z,5.83
2018-07-12T15:59:58.172Z,9.60
2018-07-12T16:02:38.930Z,13.03
2018-07-12T16:05:12.548Z,15.73
2018-07-12T16:07:51.067Z,5.53
2018-07-12T16:10:25.362Z,4.90
2018-07-12T16:12:58.772Z,6.60
2018-07-12T16:16:01.055Z,4.50
2018-07-12T16:18:38.500Z,4.93
2018-07-12T16:21:11.316Z,6.37
2018-07-12T16:23:47.898Z,5.63
2018-07-12T16:26:24.880Z,6.53
2018-07-12T16:28:57.755Z,5.13
2018-07-12T16:31:31.005Z,7.40
2018-07-12T16:34:07.686Z,13.30
2018-07-12T16:39:38.547Z,4.20
2018-07-12T16:45:26.370Z,6.80
2018-07-12T16:48:11.484Z,5.70
2018-07-12T16:51:09.904Z,6.37
2018-07-12T16:53:56.963Z,4.43
2018-07-12T16:56:36.901Z,6.37
2018-07-12T16:59:18.039Z,4.30
2018-07-12T17:22:34.062Z,7.33
2018-07-12T17:25:21.466Z,8.60
2018-07-12T17:27:56.952Z,4.47
2018-07-12T17:30:33.256Z,4.47
2018-07-12T17:33:09.160Z,5.97
2018-07-12T17:35:47.010Z,12.98
2018-07-12T17:38:24.411Z,5.40
2018-07-12T17:40:58.748Z,7.33
2018-07-12T17:43:35.085Z,5.70
2018-07-12T17:46:12.485Z,4.80
2018-07-12T17:48:56.408Z,6.17
2018-07-12T17:51:34.178Z,5.50
2018-07-12T17:54:06.941Z,6.10
2018-07-12T17:56:40.859Z,15.98
2018-07-12T17:59:30.132Z,5.03
2018-07-12T18:10:35.537Z,5.33
2018-07-12T18:13:11.745Z,4.35
2018-07-12T18:15:51.602Z,5.05
2018-07-12T18:18:25.939Z,6.37
2018-07-12T18:21:04.543Z,6.33
2018-07-12T18:26:34.363Z,4.92
2018-07-12T18:29:12.906Z,4.08
2018-07-12T18:31:46.732Z,4.30
2018-07-12T18:41:15.174Z,3.70
2018-07-12T18:44:35.924Z,7.00
2018-07-12T18:47:21.391Z,4.47
2018-07-12T18:53:05.909Z,9.98
2018-07-12T18:58:42.565Z,3.08
2018-07-12T19:01:22.910Z,4.37
2018-07-12T19:03:58.021Z,3.77
2018-07-12T19:06:48.260Z,4.22
2018-07-12T19:09:41.436Z,5.63
2018-07-12T19:12:20.690Z,4.13
2018-07-12T19:14:56.942Z,4.50
2018-07-12T20:16:46.042Z,3.30
2018-07-12T20:33:18.422Z,3.60
2018-07-12T20:35:51.884Z,6.20
2018-07-12T20:38:25.976Z,3.27
2018-07-12T20:41:00.645Z,3.73
2018-07-12T20:43:37.693Z,5.20
2018-07-12T20:46:12.376Z,10.73
2018-07-12T20:48:54.053Z,3.12
2018-07-12T20:51:34.916Z,4.90
2018-07-12T20:56:50.057Z,5.77
2018-07-12T20:59:32.076Z,3.83
2018-07-12T21:05:00.848Z,10.43
2018-07-12T21:07:34.021Z,5.03
2018-07-12T21:15:45.650Z,5.53
2018-07-12T21:18:20.789Z,5.03
2018-07-12T21:20:59.482Z,5.17
2018-07-12T21:23:35.988Z,5.37
2018-07-12T21:26:19.150Z,4.60
2018-07-12T21:29:01.506Z,4.03
2018-07-12T21:31:43.974Z,5.30
2018-07-12T21:34:23.699Z,7.87
2018-07-12T21:37:03.913Z,6.43
2018-07-12T21:39:48.546Z,5.57
2018-07-12T21:42:31.508Z,5.43
2018-07-12T21:45:20.764Z,6.73
2018-07-12T21:47:59.803Z,6.60
2018-07-12T21:53:25.232Z,4.60
2018-07-12T21:56:14.260Z,4.73
2018-07-12T21:58:52.728Z,3.90
2018-07-12T22:01:34.524Z,4.93
2018-07-12T22:04:09.658Z,4.90
2018-07-12T22:08:59.307Z,7.47
2018-07-12T22:11:41.367Z,4.70
2018-07-12T22:14:22.455Z,3.83
2018-07-12T22:17:08.249Z,5.27
2018-07-12T22:19:48.955Z,5.10
2018-07-12T22:22:29.527Z,4.77
2018-07-12T22:25:17.253Z,4.13
2018-07-12T22:28:26.315Z,3.57
2018-07-12T22:31:01.586Z,4.80
2018-07-12T22:33:42.110Z,3.50
2018-07-12T22:36:14.867Z,3.50
2018-07-12T22:38:54.546Z,3.43
2018-07-12T22:41:32.288Z,2.63
2018-07-12T22:46:53.347Z,2.57
2018-07-12T22:52:20.425Z,13.17
2018-07-12T22:55:13.841Z,3.57
2018-07-12T22:58:06.942Z,3.23
2018-07-12T23:00:49.531Z,3.03
2018-07-12T23:03:30.937Z,3.73
2018-07-12T23:06:14.389Z,8.53
2018-07-12T23:08:57.795Z,2.37
2018-07-12T23:11:37.873Z,4.20
2018-07-12T23:14:20.938Z,3.70
2018-07-12T23:16:58.689Z,3.47
2018-07-12T23:19:41.295Z,4.23
2018-07-12T23:22:15.503Z,3.67
2018-07-12T23:24:52.729Z,6.13
2018-07-12T23:27:33.810Z,4.07
2018-07-12T23:30:09.488Z,5.57
2018-07-12T23:32:50.546Z,4.77
2018-07-12T23:35:31.350Z,4.17
2018-07-12T23:38:12.114Z,4.27
2018-07-12T23:40:57.316Z,5.80
2018-07-12T23:43:34.105Z,4.50
2018-07-12T23:46:10.718Z,4.47
2018-07-12T23:48:49.681Z,6.83
2018-07-12T23:51:31.747Z,3.77
2018-07-12T23:57:14.892Z,3.50
2018-07-12T23:59:49.532Z,3.30
